sensor_id;sensor_type;location;lat;lon;timestamp;pressure;altitude;pressure_sealevel;temperature;humidity
75221;BME280;63802;53.232;6.570;2023-01-01T00:00:43;100464.13;;;12.73;78.50
75221;BME280;63802;53.232;6.570;2023-01-01T00:03:08;100474.63;;;12.60;78.84
75221;BME280;63802;53.232;6.570;2023-01-01T00:05:37;100461.72;;;12.54;78.92
75221;BME280;63802;53.232;6.570;2023-01-01T00:08:03;100473.94;;;12.74;78.55
75221;BME280;63802;53.232;6.570;2023-01-01T00:10:29;100485.28;;;12.79;78.45
75221;BME280;63802;53.232;6.570;2023-01-01T00:12:55;100498.19;;;12.79;78.41
75221;BME280;63802;53.232;6.570;2023-01-01T00:15:21;100482.06;;;12.56;79.08
75221;BME280;63802;53.232;6.570;2023-01-01T00:17:47;100493.44;;;12.65;79.17
75221;BME280;63802;53.232;6.570;2023-01-01T00:20:13;100477.38;;;12.57;79.38
75221;BME280;63802;53.232;6.570;2023-01-01T00:22:39;100482.09;;;12.67;79.15
75221;BME280;63802;53.232;6.570;2023-01-01T00:25:05;100485.16;;;12.55;79.58
75221;BME280;63802;53.232;6.570;2023-01-01T00:27:30;100490.69;;;12.65;79.55
75221;BME280;63802;53.232;6.570;2023-01-01T00:29:56;100493.78;;;12.57;80.27
75221;BME280;63802;53.232;6.570;2023-01-01T00:32:21;100474.94;;;12.38;79.96
75221;BME280;63802;53.232;6.570;2023-01-01T00:34:47;100504.00;;;12.63;80.02
75221;BME280;63802;53.232;6.570;2023-01-01T00:37:12;100488.19;;;12.36;80.58
75221;BME280;63802;53.232;6.570;2023-01-01T00:39:39;100491.34;;;12.38;80.82
75221;BME280;63802;53.232;6.570;2023-01-01T00:42:05;100504.69;;;12.43;80.57
75221;BME280;63802;53.232;6.570;2023-01-01T00:44:31;100495.22;;;12.33;80.91
75221;BME280;63802;53.232;6.570;2023-01-01T00:46:56;100512.09;;;12.46;81.07
75221;BME280;63802;53.232;6.570;2023-01-01T00:49:21;100524.22;;;12.48;81.12
75221;BME280;63802;53.232;6.570;2023-01-01T00:51:47;100525.41;;;12.51;80.81
75221;BME280;63802;53.232;6.570;2023-01-01T00:54:12;100503.09;;;12.42;80.75
75221;BME280;63802;53.232;6.570;2023-01-01T00:56:38;100513.28;;;12.45;80.73
75221;BME280;63802;53.232;6.570;2023-01-01T00:59:03;100514.44;;;12.44;80.88
75221;BME280;63802;53.232;6.570;2023-01-01T01:01:29;100523.44;;;12.48;80.59
75221;BME280;63802;53.232;6.570;2023-01-01T01:03:56;100534.44;;;12.55;80.55
75221;BME280;63802;53.232;6.570;2023-01-01T01:06:21;100524.19;;;12.38;81.41
75221;BME280;63802;53.232;6.570;2023-01-01T01:08:47;100566.78;;;12.35;82.17
75221;BME280;63802;53.232;6.570;2023-01-01T01:11:15;100549.88;;;12.23;83.19
75221;BME280;63802;53.232;6.570;2023-01-01T01:13:41;100517.19;;;11.89;83.97
75221;BME280;63802;53.232;6.570;2023-01-01T01:18:44;100561.56;;;12.20;84.31
75221;BME280;63802;53.232;6.570;2023-01-01T01:21:14;100557.53;;;12.03;84.60
75221;BME280;63802;53.232;6.570;2023-01-01T01:23:40;100535.59;;;11.92;84.75
75221;BME280;63802;53.232;6.570;2023-01-01T01:26:17;100580.16;;;12.00;85.21
75221;BME280;63802;53.232;6.570;2023-01-01T01:28:43;100523.25;;;11.69;85.69
75221;BME280;63802;53.232;6.570;2023-01-01T01:31:10;100554.97;;;11.77;86.27
75221;BME280;63802;53.232;6.570;2023-01-01T01:33:36;100565.94;;;11.80;86.62
75221;BME280;63802;53.232;6.570;2023-01-01T01:36:03;100576.56;;;11.89;86.65
75221;BME280;63802;53.232;6.570;2023-01-01T01:38:28;100569.13;;;11.89;86.73
75221;BME280;63802;53.232;6.570;2023-01-01T01:40:54;100524.63;;;11.52;86.92
75221;BME280;63802;53.232;6.570;2023-01-01T01:46:03;100533.94;;;11.44;88.01
75221;BME280;63802;53.232;6.570;2023-01-01T01:48:40;100574.25;;;11.58;88.76
75221;BME280;63802;53.232;6.570;2023-01-01T01:51:07;100581.97;;;11.49;89.08
75221;BME280;63802;53.232;6.570;2023-01-01T01:53:38;100585.06;;;11.47;89.31
75221;BME280;63802;53.232;6.570;2023-01-01T01:56:09;100577.81;;;11.25;89.80
75221;BME280;63802;53.232;6.570;2023-01-01T01:58:37;100590.03;;;11.34;89.98
75221;BME280;63802;53.232;6.570;2023-01-01T02:01:03;100597.84;;;11.36;90.11
75221;BME280;63802;53.232;6.570;2023-01-01T02:06:30;100602.88;;;11.34;90.76
75221;BME280;63802;53.232;6.570;2023-01-01T02:08:58;100594.13;;;11.18;90.95
75221;BME280;63802;53.232;6.570;2023-01-01T02:11:26;100608.63;;;11.25;90.82
75221;BME280;63802;53.232;6.570;2023-01-01T02:13:53;100596.50;;;11.23;91.53
75221;BME280;63802;53.232;6.570;2023-01-01T02:30:21;100568.13;;;10.98;91.93
75221;BME280;63802;53.232;6.570;2023-01-01T02:32:50;100580.16;;;11.26;91.97
75221;BME280;63802;53.232;6.570;2023-01-01T02:35:29;100588.81;;;11.32;91.65
75221;BME280;63802;53.232;6.570;2023-01-01T02:38:05;100586.50;;;11.34;91.69
75221;BME280;63802;53.232;6.570;2023-01-01T02:40:35;100567.25;;;11.23;91.52
75221;BME280;63802;53.232;6.570;2023-01-01T02:43:03;100586.25;;;11.46;91.06
75221;BME280;63802;53.232;6.570;2023-01-01T02:45:30;100573.91;;;11.26;91.15
75221;BME280;63802;53.232;6.570;2023-01-01T02:48:02;100582.44;;;11.21;91.17
75221;BME280;63802;53.232;6.570;2023-01-01T02:50:28;100607.53;;;11.30;91.34
75221;BME280;63802;53.232;6.570;2023-01-01T02:58:30;100623.50;;;11.28;91.29
75221;BME280;63802;53.232;6.570;2023-01-01T03:01:23;100622.59;;;11.17;91.63
75221;BME280;63802;53.232;6.570;2023-01-01T03:04:07;100615.00;;;11.03;92.01
75221;BME280;63802;53.232;6.570;2023-01-01T03:06:36;100636.09;;;11.06;92.33
75221;BME280;63802;53.232;6.570;2023-01-01T03:09:11;100644.66;;;11.05;92.25
75221;BME280;63802;53.232;6.570;2023-01-01T03:14:52;100666.03;;;10.99;92.97
75221;BME280;63802;53.232;6.570;2023-01-01T03:17:24;100655.47;;;10.98;93.15
75221;BME280;63802;53.232;6.570;2023-01-01T03:19:52;100672.59;;;10.95;93.04
75221;BME280;63802;53.232;6.570;2023-01-01T03:22:23;100662.44;;;10.92;93.40
75221;BME280;63802;53.232;6.570;2023-01-01T03:24:53;100657.69;;;10.89;93.55
75221;BME280;63802;53.232;6.570;2023-01-01T03:27:34;100663.88;;;10.86;93.85
75221;BME280;63802;53.232;6.570;2023-01-01T03:30:05;100684.13;;;10.85;93.71
75221;BME280;63802;53.232;6.570;2023-01-01T03:32:44;100658.53;;;10.66;94.03
75221;BME280;63802;53.232;6.570;2023-01-01T03:35:51;100667.66;;;10.77;94.26
75221;BME280;63802;53.232;6.570;2023-01-01T03:38:24;100659.06;;;10.75;94.68
75221;BME280;63802;53.232;6.570;2023-01-01T03:41:00;100647.13;;;10.61;94.49
75221;BME280;63802;53.232;6.570;2023-01-01T03:43:33;100682.06;;;10.74;94.75
75221;BME280;63802;53.232;6.570;2023-01-01T03:46:03;100683.56;;;10.72;94.95
75221;BME280;63802;53.232;6.570;2023-01-01T03:48:31;100653.06;;;10.66;94.90
75221;BME280;63802;53.232;6.570;2023-01-01T03:51:22;100657.28;;;10.60;94.99
75221;BME280;63802;53.232;6.570;2023-01-01T03:53:57;100637.94;;;10.46;95.20
75221;BME280;63802;53.232;6.570;2023-01-01T03:56:42;100654.91;;;10.59;94.97
75221;BME280;63802;53.232;6.570;2023-01-01T04:00:19;100653.38;;;10.61;95.22
75221;BME280;63802;53.232;6.570;2023-01-01T04:02:30;100671.34;;;10.62;95.39
75221;BME280;63802;53.232;6.570;2023-01-01T04:04:58;100653.28;;;10.54;95.09
75221;BME280;63802;53.232;6.570;2023-01-01T04:07:28;100658.84;;;10.61;95.28
75221;BME280;63802;53.232;6.570;2023-01-01T04:09:55;100658.84;;;10.61;95.34
75221;BME280;63802;53.232;6.570;2023-01-01T04:12:22;100635.22;;;10.46;95.31
75221;BME280;63802;53.232;6.570;2023-01-01T04:14:48;100660.47;;;10.66;95.42
75221;BME280;63802;53.232;6.570;2023-01-01T04:17:13;100653.28;;;10.54;95.49
75221;BME280;63802;53.232;6.570;2023-01-01T04:19:38;100652.25;;;10.62;95.31
75221;BME280;63802;53.232;6.570;2023-01-01T04:22:04;100659.75;;;10.69;95.53
75221;BME280;63802;53.232;6.570;2023-01-01T04:24:30;100682.06;;;10.74;95.55
75221;BME280;63802;53.232;6.570;2023-01-01T04:26:56;100687.94;;;10.76;95.33
75221;BME280;63802;53.232;6.570;2023-01-01T04:29:22;100694.22;;;10.81;95.37
75221;BME280;63802;53.232;6.570;2023-01-01T04:31:48;100684.91;;;10.82;95.11
75221;BME280;63802;53.232;6.570;2023-01-01T04:34:14;100630.50;;;10.43;95.05
75221;BME280;63802;53.232;6.570;2023-01-01T04:36:40;100627.38;;;10.41;95.16
75221;BME280;63802;53.232;6.570;2023-01-01T04:39:05;100662.97;;;10.74;95.19
75221;BME280;63802;53.232;6.570;2023-01-01T04:41:31;100648.97;;;10.53;95.15
75221;BME280;63802;53.232;6.570;2023-01-01T04:43:57;100674.78;;;10.59;95.18
75221;BME280;63802;53.232;6.570;2023-01-01T04:46:23;100681.56;;;10.69;95.16
75221;BME280;63802;53.232;6.570;2023-01-01T04:48:50;100690.13;;;10.67;95.40
75221;BME280;63802;53.232;6.570;2023-01-01T04:51:19;100689.28;;;10.63;95.41
75221;BME280;63802;53.232;6.570;2023-01-01T04:53:47;100629.13;;;10.30;95.00
75221;BME280;63802;53.232;6.570;2023-01-01T04:56:16;100671.84;;;10.45;95.14
75221;BME280;63802;53.232;6.570;2023-01-01T04:58:43;100689.34;;;10.44;95.28
75221;BME280;63802;53.232;6.570;2023-01-01T05:01:20;100709.53;;;10.62;95.22
75221;BME280;63802;53.232;6.570;2023-01-01T05:03:49;100707.13;;;10.57;95.28
75221;BME280;63802;53.232;6.570;2023-01-01T05:06:14;100688.09;;;10.38;94.99
75221;BME280;63802;53.232;6.570;2023-01-01T05:08:42;100725.50;;;10.60;94.99
75221;BME280;63802;53.232;6.570;2023-01-01T05:13:37;100681.06;;;10.37;94.72
75221;BME280;63802;53.232;6.570;2023-01-01T05:16:08;100733.22;;;10.58;94.46
75221;BME280;63802;53.232;6.570;2023-01-01T05:18:34;100721.84;;;10.53;94.41
75221;BME280;63802;53.232;6.570;2023-01-01T05:21:04;100720.09;;;10.64;94.50
75221;BME280;63802;53.232;6.570;2023-01-01T05:23:31;100734.53;;;10.64;93.94
75221;BME280;63802;53.232;6.570;2023-01-01T05:25:56;100739.97;;;10.64;94.05
75221;BME280;63802;53.232;6.570;2023-01-01T05:28:22;100724.75;;;10.63;93.85
75221;BME280;63802;53.232;6.570;2023-01-01T05:30:51;100733.06;;;10.70;93.32
75221;BME280;63802;53.232;6.570;2023-01-01T05:33:18;100723.00;;;10.74;93.26
75221;BME280;63802;53.232;6.570;2023-01-01T05:35:44;100730.88;;;10.80;92.64
75221;BME280;63802;53.232;6.570;2023-01-01T05:38:09;100739.31;;;10.71;92.68
75221;BME280;63802;53.232;6.570;2023-01-01T05:40:38;100743.97;;;10.70;92.45
75221;BME280;63802;53.232;6.570;2023-01-01T05:43:05;100754.03;;;10.66;92.44
75221;BME280;63802;53.232;6.570;2023-01-01T05:45:31;100756.78;;;10.66;91.99
75221;BME280;63802;53.232;6.570;2023-01-01T05:47:56;100749.88;;;10.50;91.86
75221;BME280;63802;53.232;6.570;2023-01-01T05:50:22;100720.28;;;10.29;91.43
75221;BME280;63802;53.232;6.570;2023-01-01T05:52:47;100749.91;;;10.53;91.43
75221;BME280;63802;53.232;6.570;2023-01-01T05:55:13;100761.75;;;10.61;91.45
75221;BME280;63802;53.232;6.570;2023-01-01T05:57:39;100777.75;;;10.62;91.46
75221;BME280;63802;53.232;6.570;2023-01-01T06:00:05;100769.63;;;10.66;90.65
75221;BME280;63802;53.232;6.570;2023-01-01T06:02:31;100758.00;;;10.69;90.62
75221;BME280;63802;53.232;6.570;2023-01-01T06:04:56;100769.69;;;10.69;89.96
75221;BME280;63802;53.232;6.570;2023-01-01T06:07:22;100738.03;;;10.42;89.75
75221;BME280;63802;53.232;6.570;2023-01-01T06:09:47;100781.09;;;10.52;89.31
75221;BME280;63802;53.232;6.570;2023-01-01T06:12:13;100784.19;;;10.51;89.41
75221;BME280;63802;53.232;6.570;2023-01-01T06:14:38;100796.81;;;10.40;89.47
75221;BME280;63802;53.232;6.570;2023-01-01T06:17:04;100789.44;;;10.40;89.03
75221;BME280;63802;53.232;6.570;2023-01-01T06:19:29;100798.00;;;10.39;88.72
75221;BME280;63802;53.232;6.570;2023-01-01T06:21:55;100808.69;;;10.28;88.33
75221;BME280;63802;53.232;6.570;2023-01-01T06:24:20;100799.94;;;10.19;87.90
75221;BME280;63802;53.232;6.570;2023-01-01T06:26:46;100811.56;;;10.35;87.77
75221;BME280;63802;53.232;6.570;2023-01-01T06:29:11;100804.75;;;10.26;87.24
75221;BME280;63802;53.232;6.570;2023-01-01T06:31:37;100796.63;;;10.10;87.19
75221;BME280;63802;53.232;6.570;2023-01-01T06:34:02;100847.72;;;10.32;86.67
75221;BME280;63802;53.232;6.570;2023-01-01T06:36:28;100848.38;;;10.26;86.27
75221;BME280;63802;53.232;6.570;2023-01-01T06:38:54;100877.09;;;10.39;85.85
75221;BME280;63802;53.232;6.570;2023-01-01T06:41:22;100876.66;;;10.37;85.30
75221;BME280;63802;53.232;6.570;2023-01-01T06:43:49;100876.59;;;10.33;85.54
75221;BME280;63802;53.232;6.570;2023-01-01T06:46:26;100900.72;;;10.31;85.38
75221;BME280;63802;53.232;6.570;2023-01-01T06:48:54;100900.63;;;10.28;85.20
75221;BME280;63802;53.232;6.570;2023-01-01T06:51:23;100904.28;;;10.16;85.15
75221;BME280;63802;53.232;6.570;2023-01-01T06:53:49;100902.50;;;10.24;85.21
75221;BME280;63802;53.232;6.570;2023-01-01T06:56:15;100927.47;;;10.26;85.17
75221;BME280;63802;53.232;6.570;2023-01-01T06:58:41;100911.38;;;10.21;85.00
75221;BME280;63802;53.232;6.570;2023-01-01T07:01:14;100909.72;;;10.16;84.87
75221;BME280;63802;53.232;6.570;2023-01-01T07:03:41;100910.53;;;10.17;84.91
75221;BME280;63802;53.232;6.570;2023-01-01T07:06:07;100896.84;;;9.97;85.17
75221;BME280;63802;53.232;6.570;2023-01-01T07:08:33;100878.09;;;9.96;85.04
75221;BME280;63802;53.232;6.570;2023-01-01T07:10:58;100910.97;;;10.19;85.02
75221;BME280;63802;53.232;6.570;2023-01-01T07:13:25;100922.06;;;10.10;84.68
75221;BME280;63802;53.232;6.570;2023-01-01T07:15:51;100923.69;;;9.95;85.08
75221;BME280;63802;53.232;6.570;2023-01-01T07:18:21;100914.53;;;9.88;85.23
75221;BME280;63802;53.232;6.570;2023-01-01T07:20:56;100953.88;;;10.06;85.23
75221;BME280;63802;53.232;6.570;2023-01-01T07:23:24;100965.00;;;9.97;85.13
75221;BME280;63802;53.232;6.570;2023-01-01T07:25:50;100945.81;;;9.94;85.44
75221;BME280;63802;53.232;6.570;2023-01-01T07:28:15;100961.47;;;9.97;85.74
75221;BME280;63802;53.232;6.570;2023-01-01T07:30:41;100951.38;;;9.97;85.53
75221;BME280;63802;53.232;6.570;2023-01-01T07:33:10;100973.34;;;9.89;85.79
75221;BME280;63802;53.232;6.570;2023-01-01T07:35:36;100978.91;;;9.92;85.80
75221;BME280;63802;53.232;6.570;2023-01-01T07:38:01;100979.53;;;9.86;86.28
75221;BME280;63802;53.232;6.570;2023-01-01T07:40:27;101004.75;;;9.83;86.10
75221;BME280;63802;53.232;6.570;2023-01-01T07:42:52;100983.47;;;9.73;85.92
75221;BME280;63802;53.232;6.570;2023-01-01T07:45:17;100988.75;;;9.66;86.20
75221;BME280;63802;53.232;6.570;2023-01-01T07:47:48;101016.69;;;9.94;86.32
75221;BME280;63802;53.232;6.570;2023-01-01T07:50:16;101027.53;;;9.90;86.31
75221;BME280;63802;53.232;6.570;2023-01-01T07:52:41;101029.09;;;9.91;85.96
75221;BME280;63802;53.232;6.570;2023-01-01T07:55:11;101022.31;;;9.70;86.21
75221;BME280;63802;53.232;6.570;2023-01-01T07:57:37;101019.69;;;9.58;86.49
75221;BME280;63802;53.232;6.570;2023-01-01T08:00:02;101049.50;;;9.66;86.65
75221;BME280;63802;53.232;6.570;2023-01-01T08:02:29;101026.97;;;9.54;86.74
75221;BME280;63802;53.232;6.570;2023-01-01T08:04:54;101046.41;;;9.68;86.46
75221;BME280;63802;53.232;6.570;2023-01-01T08:07:19;101054.94;;;9.66;86.65
75221;BME280;63802;53.232;6.570;2023-01-01T08:09:45;101075.44;;;9.76;86.35
75221;BME280;63802;53.232;6.570;2023-01-01T08:12:10;101084.56;;;9.68;86.98
75221;BME280;63802;53.232;6.570;2023-01-01T08:14:36;101097.50;;;9.71;86.46
75221;BME280;63802;53.232;6.570;2023-01-01T08:17:01;101077.38;;;9.60;86.81
75221;BME280;63802;53.232;6.570;2023-01-01T08:19:28;101085.72;;;9.67;86.48
75221;BME280;63802;53.232;6.570;2023-01-01T08:21:53;101128.34;;;9.75;86.64
75221;BME280;63802;53.232;6.570;2023-01-01T08:24:19;101124.06;;;9.74;86.60
75221;BME280;63802;53.232;6.570;2023-01-01T08:26:48;101130.34;;;9.62;86.46
75221;BME280;63802;53.232;6.570;2023-01-01T08:29:14;101141.53;;;9.73;86.57
75221;BME280;63802;53.232;6.570;2023-01-01T08:31:40;101111.63;;;9.61;86.43
75221;BME280;63802;53.232;6.570;2023-01-01T08:34:06;101137.75;;;9.77;86.58
75221;BME280;63802;53.232;6.570;2023-01-01T08:36:31;101122.28;;;9.66;86.63
75221;BME280;63802;53.232;6.570;2023-01-01T08:38:57;101115.75;;;9.55;86.59
75221;BME280;63802;53.232;6.570;2023-01-01T08:41:22;101135.91;;;9.66;87.10
75221;BME280;63802;53.232;6.570;2023-01-01T08:43:48;101154.91;;;9.78;87.20
75221;BME280;63802;53.232;6.570;2023-01-01T08:46:13;101160.81;;;9.80;87.31
75221;BME280;63802;53.232;6.570;2023-01-01T08:48:39;101162.41;;;9.81;87.46
75221;BME280;63802;53.232;6.570;2023-01-01T08:51:04;101159.56;;;9.77;87.62
75221;BME280;63802;53.232;6.570;2023-01-01T08:53:31;101168.09;;;9.76;87.42
75221;BME280;63802;53.232;6.570;2023-01-01T08:55:58;101181.91;;;9.83;87.63
75221;BME280;63802;53.232;6.570;2023-01-01T08:58:27;101165.13;;;9.81;87.55
75221;BME280;63802;53.232;6.570;2023-01-01T09:00:53;101166.69;;;9.82;87.51
75221;BME280;63802;53.232;6.570;2023-01-01T09:03:18;101168.03;;;9.88;87.58
75221;BME280;63802;53.232;6.570;2023-01-01T09:05:44;101172.31;;;9.89;87.18
75221;BME280;63802;53.232;6.570;2023-01-01T09:08:11;101160.16;;;9.71;87.81
75221;BME280;63802;53.232;6.570;2023-01-01T09:10:36;101173.66;;;9.95;87.34
75221;BME280;63802;53.232;6.570;2023-01-01T09:13:02;101169.66;;;9.77;87.34
75221;BME280;63802;53.232;6.570;2023-01-01T09:15:27;101188.44;;;9.94;87.19
75221;BME280;63802;53.232;6.570;2023-01-01T09:17:53;101199.44;;;9.97;86.98
75221;BME280;63802;53.232;6.570;2023-01-01T09:20:18;101197.53;;;9.98;87.03
75221;BME280;63802;53.232;6.570;2023-01-01T09:22:44;101201.56;;;10.04;86.51
75221;BME280;63802;53.232;6.570;2023-01-01T09:25:09;101213.16;;;10.01;86.81
75221;BME280;63802;53.232;6.570;2023-01-01T09:27:35;101202.06;;;9.94;86.74
75221;BME280;63802;53.232;6.570;2023-01-01T09:30:00;101181.03;;;9.79;86.96
75221;BME280;63802;53.232;6.570;2023-01-01T09:32:26;101204.84;;;9.82;86.74
75221;BME280;63802;53.232;6.570;2023-01-01T09:34:51;101195.34;;;9.76;86.54
75221;BME280;63802;53.232;6.570;2023-01-01T09:37:17;101239.28;;;10.02;86.53
75221;BME280;63802;53.232;6.570;2023-01-01T09:39:42;101222.94;;;10.02;86.51
75221;BME280;63802;53.232;6.570;2023-01-01T09:44:58;101235.88;;;10.05;86.26
75221;BME280;63802;53.232;6.570;2023-01-01T09:47:31;101228.81;;;10.04;86.14
75221;BME280;63802;53.232;6.570;2023-01-01T09:50:16;101222.50;;;10.00;86.25
75221;BME280;63802;53.232;6.570;2023-01-01T09:52:53;101224.38;;;10.12;86.00
75221;BME280;63802;53.232;6.570;2023-01-01T09:55:28;101240.06;;;10.15;85.94
75221;BME280;63802;53.232;6.570;2023-01-01T09:57:58;101226.75;;;10.13;85.98
75221;BME280;63802;53.232;6.570;2023-01-01T10:00:24;101231.53;;;10.16;86.11
75221;BME280;63802;53.232;6.570;2023-01-01T10:11:10;101239.38;;;10.33;85.56
75221;BME280;63802;53.232;6.570;2023-01-01T10:13:42;101246.88;;;10.36;85.57
75221;BME280;63802;53.232;6.570;2023-01-01T10:18:35;101231.03;;;10.57;85.12
75221;BME280;63802;53.232;6.570;2023-01-01T10:21:16;101249.88;;;10.62;85.24
75221;BME280;63802;53.232;6.570;2023-01-01T10:26:38;101233.56;;;10.66;84.92
75221;BME280;63802;53.232;6.570;2023-01-01T10:29:15;101250.06;;;10.69;84.79
75221;BME280;63802;53.232;6.570;2023-01-01T10:31:47;101257.63;;;10.60;84.57
75221;BME280;63802;53.232;6.570;2023-01-01T10:34:19;101251.97;;;10.53;84.37
75221;BME280;63802;53.232;6.570;2023-01-01T10:36:46;101241.84;;;10.38;84.45
75221;BME280;63802;53.232;6.570;2023-01-01T10:39:16;101277.31;;;10.38;84.30
75221;BME280;63802;53.232;6.570;2023-01-01T10:41:44;101275.03;;;10.40;84.49
75221;BME280;63802;53.232;6.570;2023-01-01T10:44:26;101253.03;;;10.33;84.98
75221;BME280;63802;53.232;6.570;2023-01-01T10:46:55;101270.69;;;10.39;84.65
75221;BME280;63802;53.232;6.570;2023-01-01T10:49:21;101280.75;;;10.35;84.39
75221;BME280;63802;53.232;6.570;2023-01-01T10:51:49;101263.75;;;10.26;84.23
75221;BME280;63802;53.232;6.570;2023-01-01T10:56:53;101260.22;;;10.26;84.53
75221;BME280;63802;53.232;6.570;2023-01-01T10:59:47;101234.47;;;10.11;84.55
75221;BME280;63802;53.232;6.570;2023-01-01T11:02:24;101271.25;;;10.29;84.29
75221;BME280;63802;53.232;6.570;2023-01-01T11:04:52;101266.66;;;10.33;83.95
75221;BME280;63802;53.232;6.570;2023-01-01T11:07:36;101259.16;;;10.30;84.06
75221;BME280;63802;53.232;6.570;2023-01-01T11:10:03;101271.16;;;10.41;84.07
75221;BME280;63802;53.232;6.570;2023-01-01T11:12:37;101262.00;;;10.49;83.97
75221;BME280;63802;53.232;6.570;2023-01-01T11:15:04;101263.69;;;10.54;83.89
75221;BME280;63802;53.232;6.570;2023-01-01T11:17:34;101248.63;;;10.44;83.81
75221;BME280;63802;53.232;6.570;2023-01-01T11:20:01;101262.25;;;10.44;83.82
75221;BME280;63802;53.232;6.570;2023-01-01T11:22:56;101275.31;;;10.66;83.75
75221;BME280;63802;53.232;6.570;2023-01-01T11:25:25;101277.19;;;10.62;83.69
75221;BME280;63802;53.232;6.570;2023-01-01T11:27:52;101282.63;;;10.62;83.56
75221;BME280;63802;53.232;6.570;2023-01-01T11:30:36;101314.66;;;10.65;83.29
75221;BME280;63802;53.232;6.570;2023-01-01T11:33:03;101318.00;;;10.59;83.32
75221;BME280;63802;53.232;6.570;2023-01-01T11:35:32;101315.19;;;10.55;83.55
75221;BME280;63802;53.232;6.570;2023-01-01T11:38:04;101275.63;;;10.34;83.50
75221;BME280;63802;53.232;6.570;2023-01-01T11:40:36;101309.38;;;10.41;83.22
75221;BME280;63802;53.232;6.570;2023-01-01T11:43:04;101331.09;;;10.53;83.75
75221;BME280;63802;53.232;6.570;2023-01-01T11:45:38;101326.38;;;10.50;83.56
75221;BME280;63802;53.232;6.570;2023-01-01T11:48:31;101337.09;;;10.59;83.55
75221;BME280;63802;53.232;6.570;2023-01-01T11:50:58;101293.78;;;10.42;83.46
75221;BME280;63802;53.232;6.570;2023-01-01T11:53:37;101291.69;;;10.51;83.23
75221;BME280;63802;53.232;6.570;2023-01-01T11:56:20;101309.19;;;10.65;83.29
75221;BME280;63802;53.232;6.570;2023-01-01T11:58:59;101308.75;;;10.63;83.27
75221;BME280;63802;53.232;6.570;2023-01-01T12:01:40;101311.69;;;10.70;82.82
75221;BME280;63802;53.232;6.570;2023-01-01T12:07:15;101305.63;;;10.77;82.99
75221;BME280;63802;53.232;6.570;2023-01-01T12:09:57;101324.47;;;10.98;82.69
75221;BME280;63802;53.232;6.570;2023-01-01T12:18:21;101337.66;;;11.11;81.56
75221;BME280;63802;53.232;6.570;2023-01-01T12:20:57;101317.69;;;10.92;81.49
75221;BME280;63802;53.232;6.570;2023-01-01T12:23:24;101290.00;;;10.77;81.32
75221;BME280;63802;53.232;6.570;2023-01-01T12:26:14;101332.66;;;10.98;81.63
75221;BME280;63802;53.232;6.570;2023-01-01T12:31:54;101341.09;;;10.93;81.38
75221;BME280;63802;53.232;6.570;2023-01-01T12:34:50;101330.72;;;10.98;81.71
75221;BME280;63802;53.232;6.570;2023-01-01T12:40:32;101330.53;;;11.07;81.40
75221;BME280;63802;53.232;6.570;2023-01-01T12:45:45;101359.69;;;11.34;80.84
75221;BME280;63802;53.232;6.570;2023-01-01T12:52:06;101344.47;;;11.17;80.27
75221;BME280;63802;53.232;6.570;2023-01-01T12:54:34;101342.88;;;11.16;80.29
75221;BME280;63802;53.232;6.570;2023-01-01T12:57:13;101345.97;;;11.15;80.61
75221;BME280;63802;53.232;6.570;2023-01-01T12:59:47;101352.72;;;11.21;80.83
75221;BME280;63802;53.232;6.570;2023-01-01T13:02:25;101357.50;;;11.24;80.45
75221;BME280;63802;53.232;6.570;2023-01-01T13:05:02;101362.59;;;11.25;80.72
75221;BME280;63802;53.232;6.570;2023-01-01T13:07:34;101351.59;;;11.22;80.84
75221;BME280;63802;53.232;6.570;2023-01-01T13:10:23;101346.28;;;11.13;80.77
75221;BME280;63802;53.232;6.570;2023-01-01T13:12:51;101344.63;;;11.09;80.83
75221;BME280;63802;53.232;6.570;2023-01-01T13:18:06;101352.13;;;11.12;81.09
75221;BME280;63802;53.232;6.570;2023-01-01T13:20:35;101351.25;;;11.08;81.48
75221;BME280;63802;53.232;6.570;2023-01-01T13:23:03;101357.78;;;11.03;81.58
75221;BME280;63802;53.232;6.570;2023-01-01T13:25:28;101360.13;;;11.05;81.37
75221;BME280;63802;53.232;6.570;2023-01-01T13:33:26;101354.50;;;10.98;81.97
75221;BME280;63802;53.232;6.570;2023-01-01T13:41:43;101364.38;;;10.87;82.26
75221;BME280;63802;53.232;6.570;2023-01-01T13:44:17;101346.09;;;10.75;82.41
75221;BME280;63802;53.232;6.570;2023-01-01T13:46:59;101335.25;;;10.63;82.38
75221;BME280;63802;53.232;6.570;2023-01-01T13:52:27;101363.66;;;10.74;82.51
75221;BME280;63802;53.232;6.570;2023-01-01T14:03:15;101376.31;;;10.66;82.74
75221;BME280;63802;53.232;6.570;2023-01-01T14:05:49;101373.13;;;10.64;82.69
75221;BME280;63802;53.232;6.570;2023-01-01T14:08:34;101357.44;;;10.61;82.74
75221;BME280;63802;53.232;6.570;2023-01-01T14:11:02;101366.53;;;10.65;83.03
75221;BME280;63802;53.232;6.570;2023-01-01T14:13:40;101388.72;;;10.64;82.76
75221;BME280;63802;53.232;6.570;2023-01-01T14:16:09;101388.63;;;10.60;82.78
75221;BME280;63802;53.232;6.570;2023-01-01T14:18:58;101411.16;;;10.57;82.93
75221;BME280;63802;53.232;6.570;2023-01-01T14:21:28;101410.72;;;10.55;82.69
75221;BME280;63802;53.232;6.570;2023-01-01T14:26:25;101402.13;;;10.41;83.21
75221;BME280;63802;53.232;6.570;2023-01-01T14:28:53;101388.06;;;10.27;83.29
75221;BME280;63802;53.232;6.570;2023-01-01T14:31:25;101386.50;;;10.26;83.13
75221;BME280;63802;53.232;6.570;2023-01-01T14:33:52;101411.94;;;10.30;83.75
75221;BME280;63802;53.232;6.570;2023-01-01T14:36:24;101412.81;;;10.34;83.92
75221;BME280;63802;53.232;6.570;2023-01-01T14:38:55;101393.66;;;10.19;83.80
75221;BME280;63802;53.232;6.570;2023-01-01T14:44:05;101411.38;;;10.25;83.85
75221;BME280;63802;53.232;6.570;2023-01-01T14:46:38;101415.56;;;10.22;84.26
75221;BME280;63802;53.232;6.570;2023-01-01T14:49:08;101413.75;;;10.26;84.25